Ana Sayfa
METAR-TAF:

METAR-TAF

Havaalanları :

Auburn, Alabama, Amerika Birleşik Devletleri

Enlem: 32-37N, Boylam: 085-26W, yükseklik: 236 m

Güncel hava durumu gözlemi

Rapor saat 02:56 UTC de 44 dakika önce yapıldı.
Sakin rüzgar
Sıcaklık 19°C
Nem 100%
Basınç 1012 hPa
Görüş mesafesi: 16.1 km
400 ft yükseklikte parçalı bulutlu
3500 ft yükseklikte parçalı bulutlu

METAR: KAUO 180256Z AUTO 00000KT 10SM SCT004 SCT035 19/19 A2989 RMK AO2 SLP139 T01890189 53004

Saat: 22:40 (03:40 UTC)


TAF: eksik

4.000'den fazla havaalanı için hava durumu gözlemleri ve tahminleri (METAR ve TAF raporları).

Kullanılabilir istasyonlar harita üzerinde sarı ve kırmızı noktalarla gösterilir.

İstasyonun adını görmek için fareyi noktanın üzerinde gezdirin.

Sonrasında hava gözlem ve tahminlerini görmek için tıklayın.

Haritayı değiştirmek için: yaklaştırmak için siyah artı işaretli yeşil düğmeye ve uzaklaştırmak için de eksi işaretli düğmeye hızla tıklayın; bitişik haritalar için yeşil okları kullanın.


METAR-TAF: